Time;durP1;ratioP1;P1;durP2;ratioP2;P2;SDS_P1;SDS_P2;PMS_P1;PMS_P2;Temp;Humidity;BMP_temperature;BMP_pressure;BME280_temperature;BME280_humidity;BME280_pressure;Samples;Min_cycle;Max_cycle;Signal;HPM_P1;HPM_P2
2022/02/02 00:01:54;;;;;;;5.28;3.22;;;;;;;;;;5027875;28;20528;-52
2022/02/02 00:04:24;;;;;;;3.85;3.30;;;;;;;;;;5027592;28;20433;-49
2022/02/02 00:09:50;;;;;;;3.72;3.25;;;;;;;;;;5030891;28;20512;-50
2022/02/02 00:12:34;;;;;;;3.97;3.10;;;;;;;;;;5026469;28;20022;-51
2022/02/02 00:17:36;;;;;;;3.90;3.13;;;;;;;;;;5028723;28;20461;-50
2022/02/02 00:20:23;;;;;;;4.22;3.30;;;;;;;;;;5033995;28;20108;-50
2022/02/02 00:22:52;;;;;;;4.78;3.67;;;;;;;;;;5026310;28;20025;-52
2022/02/02 00:25:23;;;;;;;4.18;3.30;;;;;;;;;;5026116;28;20049;-49
2022/02/02 00:27:54;;;;;;;4.28;3.20;;;;;;;;;;5025918;28;20546;-51
2022/02/02 00:30:24;;;;;;;3.53;3.05;;;;;;;;;;5029719;28;20029;-51
2022/02/02 00:33:15;;;;;;;4.35;2.97;;;;;;;;;;5035736;28;20036;-49
2022/02/02 00:35:45;;;;;;;3.50;2.63;;;;;;;;;;5047353;28;20085;-51
2022/02/02 00:38:11;;;;;;;3.55;2.80;;;;;;;;;;5046140;28;20061;-51
2022/02/02 00:40:37;;;;;;;3.70;2.92;;;;;;;;;;5045859;28;20449;-51
2022/02/02 00:43:03;;;;;;;4.47;3.30;;;;;;;;;;5047538;28;20079;-52
2022/02/02 00:45:42;;;;;;;5.47;3.47;;;;;;;;;;5047114;28;20691;-49
2022/02/02 00:48:09;;;;;;;5.07;3.35;;;;;;;;;;5047289;28;20442;-47
2022/02/02 00:50:35;;;;;;;4.28;3.22;;;;;;;;;;5047043;28;20722;-49
2022/02/02 00:53:01;;;;;;;4.00;3.10;;;;;;;;;;5045543;28;20642;-47
2022/02/02 00:55:27;;;;;;;4.88;3.55;;;;;;;;;;5046992;28;20033;-50
2022/02/02 00:57:53;;;;;;;4.30;3.20;;;;;;;;;;5046963;28;20039;-50
2022/02/02 01:00:19;;;;;;;5.03;3.83;;;;;;;;;;5047450;28;20025;-49
2022/02/02 01:02:46;;;;;;;7.05;3.65;;;;;;;;;;5062460;28;20029;-47
2022/02/02 01:05:12;;;;;;;5.00;3.67;;;;;;;;;;5066404;28;20053;-47
2022/02/02 01:13:07;;;;;;;4.75;3.33;;;;;;;;;;5027671;28;20409;-50
2022/02/02 01:18:24;;;;;;;3.70;2.60;;;;;;;;;;5032555;28;20033;-48
2022/02/02 01:20:55;;;;;;;4.55;3.13;;;;;;;;;;5048113;28;20105;-48
2022/02/02 01:28:56;;;;;;;2.63;2.30;;;;;;;;;;5036972;28;20053;-48
2022/02/02 01:31:23;;;;;;;3.00;2.45;;;;;;;;;;5027585;28;20026;-49
2022/02/02 01:33:49;;;;;;;4.32;2.70;;;;;;;;;;5027883;28;20026;-50
2022/02/02 01:36:15;;;;;;;2.53;2.00;;;;;;;;;;5027947;28;20025;-47
2022/02/02 01:38:43;;;;;;;2.53;2.03;;;;;;;;;;5026318;28;20087;-50
2022/02/02 01:41:17;;;;;;;2.88;2.30;;;;;;;;;;5028063;28;20130;-48
2022/02/02 01:43:56;;;;;;;;;;;;;;;;;;5027730;28;20484;-50
2022/02/02 01:46:23;;;;;;;2.63;2.10;;;;;;;;;;5027260;28;19909;-46
2022/02/02 01:49:00;;;;;;;3.10;2.35;;;;;;;;;;5027365;28;20064;-50
2022/02/02 01:51:46;;;;;;;3.45;2.30;;;;;;;;;;5043069;28;20115;-48
2022/02/02 01:54:30;;;;;;;2.90;2.30;;;;;;;;;;5047312;28;20025;-47
2022/02/02 01:56:59;;;;;;;2.20;1.90;;;;;;;;;;5036410;28;20053;-49
2022/02/02 01:59:39;;;;;;;2.42;1.80;;;;;;;;;;5027028;28;20080;-50
2022/02/02 02:02:09;;;;;;;2.40;1.80;;;;;;;;;;5027114;28;20038;-48
2022/02/02 02:04:35;;;;;;;2.05;1.83;;;;;;;;;;5026669;28;20489;-46
2022/02/02 02:07:01;;;;;;;2.28;1.95;;;;;;;;;;5027351;28;20028;-46
2022/02/02 02:09:30;;;;;;;2.83;2.10;;;;;;;;;;5026851;28;20435;-49
2022/02/02 02:11:58;;;;;;;1.75;1.60;;;;;;;;;;5036697;28;20056;-47
2022/02/02 02:17:09;;;;;;;2.00;1.70;;;;;;;;;;5046967;28;20044;-47
2022/02/02 02:19:38;;;;;;;2.90;1.90;;;;;;;;;;5046463;28;20104;-48
2022/02/02 02:22:07;;;;;;;1.75;1.63;;;;;;;;;;5046417;28;20095;-50
2022/02/02 02:24:36;;;;;;;1.90;1.50;;;;;;;;;;5045875;28;20049;-49
2022/02/02 02:27:02;;;;;;;1.98;1.70;;;;;;;;;;5032737;28;20025;-47
2022/02/02 02:37:36;;;;;;;1.67;1.58;;;;;;;;;;5046649;28;20163;-47
2022/02/02 02:40:23;;;;;;;2.38;1.70;;;;;;;;;;5047076;28;20029;-49
2022/02/02 02:56:36;;;;;;;;;;;;;;;;;;5047060;28;20120;-48
2022/02/02 02:59:09;;;;;;;2.33;1.90;;;;;;;;;;5027075;28;19959;-50
2022/02/02 03:02:26;;;;;;;1.98;1.77;;;;;;;;;;5025746;28;20029;-49
2022/02/02 03:32:49;;;;;;;1.63;1.42;;;;;;;;;;5038628;28;20120;-46
2022/02/02 04:07:11;;;;;;;1.33;1.17;;;;;;;;;;5049538;28;20489;-49
2022/02/02 04:09:39;;;;;;;1.30;1.20;;;;;;;;;;5049048;28;20025;-50
2022/02/02 04:12:19;;;;;;;2.00;1.30;;;;;;;;;;5040571;28;20112;-48
2022/02/02 04:55:39;;;;;;;1.98;1.50;;;;;;;;;;5048642;28;20585;-46
2022/02/02 04:58:33;;;;;;;1.33;1.20;;;;;;;;;;5048357;28;20028;-49
2022/02/02 05:06:42;;;;;;;1.30;1.20;;;;;;;;;;5028402;28;20088;-49
2022/02/02 05:12:21;;;;;;;1.60;1.50;;;;;;;;;;5028109;28;20041;-50
2022/02/02 05:42:37;;;;;;;2.47;1.83;;;;;;;;;;5027320;28;20117;-49
2022/02/02 05:52:44;;;;;;;2.15;1.65;;;;;;;;;;5046675;28;20051;-48
2022/02/02 05:55:10;;;;;;;2.75;2.15;;;;;;;;;;5046272;28;20108;-51
2022/02/02 05:57:39;;;;;;;2.50;2.00;;;;;;;;;;5046678;28;20044;-52
2022/02/02 06:00:05;;;;;;;2.83;2.10;;;;;;;;;;5042079;28;20029;-52
2022/02/02 06:02:33;;;;;;;2.13;1.70;;;;;;;;;;5047422;28;20488;-49
2022/02/02 06:05:04;;;;;;;2.50;1.90;;;;;;;;;;5046831;28;20067;-52
2022/02/02 06:07:33;;;;;;;2.58;1.85;;;;;;;;;;5044644;28;20037;-50
2022/02/02 06:09:59;;;;;;;3.83;2.60;;;;;;;;;;5038673;28;20066;-51
2022/02/02 06:12:25;;;;;;;2.83;2.15;;;;;;;;;;5039429;28;20099;-50
2022/02/02 06:14:51;;;;;;;2.10;1.70;;;;;;;;;;5046383;28;20029;-52
2022/02/02 06:17:19;;;;;;;2.45;2.03;;;;;;;;;;5046640;28;20036;-50
2022/02/02 06:19:45;;;;;;;1.80;1.52;;;;;;;;;;5044970;28;20048;-49
2022/02/02 06:22:11;;;;;;;2.53;1.75;;;;;;;;;;5046579;28;20028;-51
2022/02/02 06:24:41;;;;;;;1.70;1.55;;;;;;;;;;5046156;28;20044;-51
2022/02/02 06:27:11;;;;;;;1.85;1.60;;;;;;;;;;5032824;28;20029;-51
2022/02/02 06:29:42;;;;;;;1.48;1.35;;;;;;;;;;5031295;28;20083;-51
2022/02/02 06:32:13;;;;;;;1.52;1.38;;;;;;;;;;5038894;28;20029;-49
2022/02/02 06:34:43;;;;;;;1.95;1.67;;;;;;;;;;5036538;28;20116;-52
2022/02/02 06:37:11;;;;;;;1.92;1.50;;;;;;;;;;5027171;28;20033;-53
2022/02/02 06:39:40;;;;;;;1.70;1.58;;;;;;;;;;5042933;28;20064;-51
2022/02/02 06:42:09;;;;;;;2.25;1.85;;;;;;;;;;5046994;28;20016;-48
2022/02/02 06:44:37;;;;;;;2.17;1.98;;;;;;;;;;5035547;28;20056;-50
2022/02/02 06:47:03;;;;;;;3.13;2.30;;;;;;;;;;5027856;28;20551;-47
2022/02/02 06:49:29;;;;;;;3.60;2.75;;;;;;;;;;5037086;28;20404;-48
2022/02/02 06:52:02;;;;;;;2.90;2.35;;;;;;;;;;5033706;28;20045;-49
2022/02/02 06:54:49;;;;;;;2.83;2.13;;;;;;;;;;5037919;28;20079;-49
2022/02/02 06:57:23;;;;;;;3.28;2.33;;;;;;;;;;5046920;28;20041;-52
2022/02/02 07:16:17;;;;;;;2.67;2.03;;;;;;;;;;5045633;28;20062;-49
2022/02/02 07:18:31;;;;;;;2.72;2.35;;;;;;;;;;5037087;28;20037;-49
2022/02/02 07:21:18;;;;;;;2.42;2.00;;;;;;;;;;5026953;28;20041;-48
2022/02/02 07:24:01;;;;;;;2.58;2.30;;;;;;;;;;5031517;28;20044;-50
2022/02/02 07:29:18;;;;;;;3.00;2.20;;;;;;;;;;5040898;28;20071;-46
2022/02/02 07:34:35;;;;;;;3.55;2.45;;;;;;;;;;5046003;28;20433;-49
2022/02/02 07:37:03;;;;;;;4.45;3.10;;;;;;;;;;5039945;28;20580;-49
2022/02/02 07:39:33;;;;;;;4.10;3.05;;;;;;;;;;5044690;28;20407;-52
2022/02/02 07:42:04;;;;;;;3.25;2.67;;;;;;;;;;5049092;28;20025;-49
2022/02/02 07:44:34;;;;;;;3.88;2.85;;;;;;;;;;5039296;28;20036;-50
2022/02/02 07:47:06;;;;;;;3.55;2.58;;;;;;;;;;5048073;28;20323;-52
2022/02/02 07:49:35;;;;;;;2.72;2.35;;;;;;;;;;5047292;28;20508;-50
2022/02/02 07:52:01;;;;;;;2.75;2.15;;;;;;;;;;5049729;28;20032;-51
2022/02/02 07:54:33;;;;;;;3.50;2.70;;;;;;;;;;5048181;28;20112;-52
2022/02/02 07:57:01;;;;;;;3.75;2.63;;;;;;;;;;5048392;28;20107;-48
2022/02/02 08:05:19;;;;;;;4.13;3.03;;;;;;;;;;5066272;28;20035;-48
2022/02/02 08:08:01;;;;;;;2.58;2.35;;;;;;;;;;5055614;28;20044;-50
2022/02/02 08:10:28;;;;;;;3.22;2.70;;;;;;;;;;5040561;28;20083;-52
2022/02/02 08:13:02;;;;;;;4.07;2.85;;;;;;;;;;5028697;28;20129;-49
2022/02/02 08:15:32;;;;;;;4.38;3.05;;;;;;;;;;5042009;28;20483;-49
2022/02/02 08:17:58;;;;;;;3.35;2.40;;;;;;;;;;5044326;28;20401;-49
2022/02/02 08:20:26;;;;;;;4.05;3.20;;;;;;;;;;5042204;28;20037;-48
2022/02/02 08:22:52;;;;;;;3.40;2.55;;;;;;;;;;5035621;28;20029;-50
2022/02/02 08:25:30;;;;;;;2.63;2.40;;;;;;;;;;5047310;28;20025;-49
2022/02/02 08:27:58;;;;;;;3.20;2.70;;;;;;;;;;5045626;28;20029;-47
2022/02/02 08:30:27;;;;;;;2.97;2.22;;;;;;;;;;5046915;28;20026;-48
2022/02/02 08:33:00;;;;;;;3.88;2.20;;;;;;;;;;5047969;28;20550;-48
2022/02/02 08:35:45;;;;;;;3.28;2.53;;;;;;;;;;5028150;28;20026;-48
2022/02/02 08:41:01;;;;;;;2.30;2.10;;;;;;;;;;5030928;28;20543;-51
2022/02/02 08:43:33;;;;;;;2.53;2.20;;;;;;;;;;5044014;28;20036;-51
2022/02/02 08:46:06;;;;;;;2.72;2.15;;;;;;;;;;5042707;28;20027;-49
2022/02/02 08:48:33;;;;;;;2.42;2.03;;;;;;;;;;5035146;28;20029;-47
2022/02/02 08:51:06;;;;;;;3.00;2.25;;;;;;;;;;5028816;28;20033;-50
2022/02/02 08:54:05;;;;;;;2.80;2.30;;;;;;;;;;5027767;28;20029;-46
2022/02/02 08:58:46;;;;;;;2.90;2.40;;;;;;;;;;5027484;28;20033;-50
2022/02/02 09:01:20;;;;;;;3.72;2.70;;;;;;;;;;5040705;28;20025;-51
2022/02/02 09:06:32;;;;;;;3.50;2.63;;;;;;;;;;5036758;28;20495;-47
2022/02/02 09:09:10;;;;;;;4.38;3.08;;;;;;;;;;5044850;28;20036;-50
2022/02/02 09:25:28;;;;;;;4.55;3.20;;;;;;;;;;5043350;28;20040;-51
2022/02/02 09:36:00;;;;;;;3.13;2.50;;;;;;;;;;5037127;28;20051;-49
2022/02/02 09:38:26;;;;;;;3.00;2.10;;;;;;;;;;5042991;28;20147;-49
2022/02/02 09:43:23;;;;;;;2.72;2.30;;;;;;;;;;5048189;28;20065;-51
2022/02/02 09:45:55;;;;;;;2.40;2.17;;;;;;;;;;5046986;28;20037;-51
2022/02/02 09:48:28;;;;;;;3.00;2.30;;;;;;;;;;5048172;28;20024;-47
2022/02/02 09:51:01;;;;;;;2.63;2.17;;;;;;;;;;5039685;28;20025;-50
2022/02/02 09:54:05;;;;;;;3.13;2.47;;;;;;;;;;5029395;28;20061;-51
2022/02/02 10:04:18;;;;;;;3.53;2.75;;;;;;;;;;5047943;28;20033;-50
2022/02/02 10:09:28;;;;;;;3.58;2.83;;;;;;;;;;5033011;28;20412;-50
2022/02/02 10:14:27;;;;;;;3.70;2.70;;;;;;;;;;5027781;28;20575;-49
2022/02/02 10:16:54;;;;;;;4.28;2.85;;;;;;;;;;5045559;28;20078;-50
2022/02/02 10:19:25;;;;;;;3.20;2.35;;;;;;;;;;5052659;28;20043;-46
2022/02/02 10:21:51;;;;;;;2.95;2.35;;;;;;;;;;5064098;28;20032;-51
2022/02/02 10:24:18;;;;;;;3.42;2.63;;;;;;;;;;5047630;28;20031;-51
2022/02/02 10:26:51;;;;;;;3.40;2.78;;;;;;;;;;5042744;28;20387;-51
2022/02/02 10:29:18;;;;;;;2.30;2.10;;;;;;;;;;5037860;28;20029;-51
2022/02/02 10:31:48;;;;;;;3.20;2.20;;;;;;;;;;5033989;28;20164;-51
2022/02/02 10:34:18;;;;;;;3.42;2.50;;;;;;;;;;5030848;28;20497;-52
2022/02/02 10:36:45;;;;;;;3.58;2.60;;;;;;;;;;5027138;28;20042;-51
2022/02/02 10:39:17;;;;;;;3.28;2.30;;;;;;;;;;5036605;28;20033;-48
2022/02/02 10:41:48;;;;;;;4.32;2.80;;;;;;;;;;5037698;28;20108;-51
2022/02/02 10:44:31;;;;;;;3.17;2.17;;;;;;;;;;5046990;28;20029;-50
2022/02/02 10:47:14;;;;;;;3.28;2.60;;;;;;;;;;5047121;28;20021;-49
2022/02/02 10:50:00;;;;;;;3.15;2.50;;;;;;;;;;5030347;28;20072;-51
2022/02/02 10:52:37;;;;;;;3.38;2.72;;;;;;;;;;5027136;28;20148;-48
2022/02/02 11:01:31;;;;;;;3.05;2.35;;;;;;;;;;5042954;28;20107;-51
2022/02/02 11:06:41;;;;;;;2.67;2.20;;;;;;;;;;5027626;28;19923;-51
2022/02/02 11:09:26;;;;;;;3.05;2.10;;;;;;;;;;5027139;28;20041;-51
2022/02/02 11:11:53;;;;;;;2.30;2.08;;;;;;;;;;5030798;28;20033;-49
2022/02/02 11:14:38;;;;;;;2.35;1.95;;;;;;;;;;5037601;28;20044;-50
2022/02/02 11:17:04;;;;;;;;;;;;;;;;;;5049992;28;20054;-51
2022/02/02 11:19:32;;;;;;;2.58;1.90;;;;;;;;;;5051042;28;19921;-49
2022/02/02 11:22:16;;;;;;;2.15;1.80;;;;;;;;;;5049274;28;20029;-52
2022/02/02 11:24:42;;;;;;;2.22;1.70;;;;;;;;;;5030885;28;20057;-52
2022/02/02 11:27:18;;;;;;;2.30;1.73;;;;;;;;;;5030583;28;20416;-50
2022/02/02 11:29:45;;;;;;;1.40;1.30;;;;;;;;;;5044569;28;20052;-51
2022/02/02 11:32:13;;;;;;;1.67;1.20;;;;;;;;;;5039777;28;20032;-52
2022/02/02 11:34:40;;;;;;;1.95;1.48;;;;;;;;;;5039720;28;20052;-51
2022/02/02 11:37:07;;;;;;;1.42;1.20;;;;;;;;;;5048671;28;20029;-52
2022/02/02 11:39:47;;;;;;;1.00;0.90;;;;;;;;;;5031733;28;20060;-49
2022/02/02 11:42:40;;;;;;;1.00;0.80;;;;;;;;;;5029721;28;20021;-52
2022/02/02 11:45:28;;;;;;;1.00;0.90;;;;;;;;;;5030044;28;20401;-51
2022/02/02 11:47:54;;;;;;;0.73;0.60;;;;;;;;;;5034238;28;20102;-51
2022/02/02 11:50:40;;;;;;;0.70;0.70;;;;;;;;;;5032775;28;20030;-51
2022/02/02 11:53:07;;;;;;;0.70;0.70;;;;;;;;;;5033660;28;20033;-52
2022/02/02 11:55:33;;;;;;;0.60;0.60;;;;;;;;;;5047580;28;20492;-53
2022/02/02 11:58:12;;;;;;;1.02;0.88;;;;;;;;;;5049648;28;20103;-52
2022/02/02 12:01:03;;;;;;;0.50;0.50;;;;;;;;;;5049011;28;20551;-51
2022/02/02 12:04:04;;;;;;;0.98;0.85;;;;;;;;;;5049683;28;20731;-50
2022/02/02 12:35:57;;;;;;;1.00;0.90;;;;;;;;;;5034038;28;20507;-52
2022/02/02 12:49:57;;;;;;;1.20;1.10;;;;;;;;;;5036688;28;20044;-49
2022/02/02 12:58:02;;;;;;;1.13;1.00;;;;;;;;;;5035927;28;20303;-52
2022/02/02 13:01:06;;;;;;;1.75;1.08;;;;;;;;;;5045264;28;20025;-52
2022/02/02 13:03:28;;;;;;;0.98;0.88;;;;;;;;;;5044416;28;20025;-51
2022/02/02 13:05:54;;;;;;;0.80;0.80;;;;;;;;;;5046363;28;20082;-52
2022/02/02 13:08:20;;;;;;;0.73;0.73;;;;;;;;;;5042883;28;20041;-50
2022/02/02 13:10:47;;;;;;;0.80;0.80;;;;;;;;;;5037982;28;20481;-49
2022/02/02 13:13:29;;;;;;;1.10;1.00;;;;;;;;;;5040875;28;20025;-52
2022/02/02 13:16:06;;;;;;;1.10;1.00;;;;;;;;;;5032688;28;20029;-51
2022/02/02 13:26:20;;;;;;;0.60;0.60;;;;;;;;;;5046927;28;20039;-52
2022/02/02 13:31:23;;;;;;;0.90;0.90;;;;;;;;;;5046510;28;20532;-50
2022/02/02 13:33:52;;;;;;;1.23;0.73;;;;;;;;;;5031596;28;20029;-51
2022/02/02 13:47:44;;;;;;;0.90;0.90;;;;;;;;;;5044461;28;20115;-52
2022/02/02 13:50:42;;;;;;;1.10;0.98;;;;;;;;;;5045427;28;20272;-51
2022/02/02 14:01:30;;;;;;;0.68;0.68;;;;;;;;;;5028286;28;20036;-49
2022/02/02 14:04:13;;;;;;;0.73;0.73;;;;;;;;;;5045804;28;20071;-50
2022/02/02 14:06:54;;;;;;;0.98;0.90;;;;;;;;;;5045165;28;20021;-48
2022/02/02 14:33:29;;;;;;;2.38;1.40;;;;;;;;;;5039326;28;19923;-52
2022/02/02 14:36:01;;;;;;;2.33;1.65;;;;;;;;;;5027113;28;20108;-51
2022/02/02 14:38:34;;;;;;;3.45;1.88;;;;;;;;;;5042877;28;20021;-52
2022/02/02 14:41:10;;;;;;;4.80;2.10;;;;;;;;;;5037646;28;20053;-52
2022/02/02 14:44:01;;;;;;;6.40;2.30;;;;;;;;;;5025905;28;20093;-51
2022/02/02 14:46:40;;;;;;;6.38;2.85;;;;;;;;;;5028476;28;20037;-51
2022/02/02 14:49:16;;;;;;;7.72;2.92;;;;;;;;;;5031846;28;20443;-51
2022/02/02 14:54:52;;;;;;;5.55;2.67;;;;;;;;;;5044656;28;20043;-52
2022/02/02 15:29:27;;;;;;;1.35;1.10;;;;;;;;;;5045779;28;20174;-51
2022/02/02 15:31:54;;;;;;;1.17;1.05;;;;;;;;;;5035415;28;20136;-51
2022/02/02 15:34:29;;;;;;;0.82;0.80;;;;;;;;;;5044865;28;20454;-51
2022/02/02 15:39:24;;;;;;;1.30;1.00;;;;;;;;;;5045482;28;20033;-51
2022/02/02 16:01:02;;;;;;;1.75;1.45;;;;;;;;;;5047402;28;20118;-52
2022/02/02 16:03:13;;;;;;;1.67;1.40;;;;;;;;;;5047685;28;20516;-52
2022/02/02 16:05:47;;;;;;;3.42;1.67;;;;;;;;;;5036866;28;20530;-49
2022/02/02 16:08:18;;;;;;;1.30;1.15;;;;;;;;;;5033875;28;20072;-49
2022/02/02 16:11:02;;;;;;;1.33;1.10;;;;;;;;;;5049066;28;20086;-51
2022/02/02 16:16:11;;;;;;;1.10;1.00;;;;;;;;;;5050589;28;20462;-52
2022/02/02 16:18:48;;;;;;;1.13;1.02;;;;;;;;;;5043737;28;20022;-52
2022/02/02 16:37:42;;;;;;;1.92;1.27;;;;;;;;;;5030204;28;20080;-53
2022/02/02 16:40:11;;;;;;;2.13;1.50;;;;;;;;;;5033902;28;20024;-53
2022/02/02 16:45:22;;;;;;;2.83;2.10;;;;;;;;;;5046925;28;20094;-53
2022/02/02 16:47:49;;;;;;;2.70;2.00;;;;;;;;;;5049187;28;20057;-52
2022/02/02 16:50:19;;;;;;;2.78;2.08;;;;;;;;;;5036261;28;20029;-53
2022/02/02 16:52:48;;;;;;;2.25;1.80;;;;;;;;;;5030284;28;20060;-51
2022/02/02 17:33:39;;;;;;;4.82;3.45;;;;;;;;;;5036533;28;20091;-53
2022/02/02 17:36:25;;;;;;;;;;;;;;;;;;5042460;28;20501;-53
2022/02/02 18:21:07;;;;;;;3.28;2.50;;;;;;;;;;5024969;28;20043;-55
2022/02/02 18:24:13;;;;;;;5.00;2.90;;;;;;;;;;5034747;28;20235;-54
2022/02/02 18:29:00;;;;;;;3.95;2.90;;;;;;;;;;5033482;28;20103;-54
2022/02/02 18:45:05;;;;;;;2.88;1.85;;;;;;;;;;5028831;28;20040;-56
2022/02/02 18:50:25;;;;;;;2.83;1.73;;;;;;;;;;5031244;28;20586;-55
2022/02/02 19:39:26;;;;;;;2.47;2.15;;;;;;;;;;5030550;28;20144;-55
2022/02/02 20:05:33;;;;;;;3.85;2.20;;;;;;;;;;5040562;28;20638;-54
2022/02/02 20:11:00;;;;;;;5.20;3.17;;;;;;;;;;5041831;28;20103;-55
2022/02/02 20:13:26;;;;;;;7.47;4.10;;;;;;;;;;5032036;28;20050;-55
2022/02/02 20:15:53;;;;;;;12.82;5.88;;;;;;;;;;5038962;28;20020;-54
2022/02/02 20:18:19;;;;;;;10.40;5.38;;;;;;;;;;5034103;28;20041;-55
2022/02/02 20:20:46;;;;;;;12.57;6.40;;;;;;;;;;5040799;28;20404;-52
2022/02/02 20:23:13;;;;;;;13.82;6.47;;;;;;;;;;5038676;28;20033;-54
2022/02/02 20:25:45;;;;;;;18.90;7.88;;;;;;;;;;5028474;28;20460;-54
2022/02/02 20:28:11;;;;;;;18.98;7.78;;;;;;;;;;5035734;28;20552;-54
2022/02/02 20:30:38;;;;;;;18.50;7.38;;;;;;;;;;5038683;28;20032;-55
2022/02/02 20:33:06;;;;;;;21.20;8.32;;;;;;;;;;5027959;28;20084;-55
2022/02/02 20:35:33;;;;;;;22.10;9.52;;;;;;;;;;5037572;28;20025;-55
2022/02/02 20:38:00;;;;;;;16.70;7.78;;;;;;;;;;5036180;28;20052;-55
2022/02/02 20:40:26;;;;;;;13.27;6.45;;;;;;;;;;5030397;28;20480;-55
2022/02/02 21:14:49;;;;;;;12.10;5.60;;;;;;;;;;5025736;28;20037;-54
2022/02/02 21:17:24;;;;;;;11.67;5.80;;;;;;;;;;5041501;28;20033;-55
2022/02/02 21:19:59;;;;;;;10.63;5.07;;;;;;;;;;5043883;28;20408;-55
2022/02/02 21:22:31;;;;;;;;;;;;;;;;;;5033243;28;20408;-54
2022/02/02 21:25:31;;;;;;;8.65;4.55;;;;;;;;;;5027108;28;19940;-54
2022/02/02 21:27:57;;;;;;;10.55;5.30;;;;;;;;;;5033901;28;20029;-54
2022/02/02 21:30:25;;;;;;;8.25;4.13;;;;;;;;;;5033959;28;20587;-55
2022/02/02 21:32:51;;;;;;;9.02;4.40;;;;;;;;;;5032783;28;20017;-56
2022/02/02 21:35:17;;;;;;;9.88;5.38;;;;;;;;;;5043875;28;20029;-53
2022/02/02 21:37:45;;;;;;;12.55;6.13;;;;;;;;;;5041036;28;20030;-55
2022/02/02 21:40:25;;;;;;;12.00;5.82;;;;;;;;;;5037725;28;20029;-56
2022/02/02 21:42:54;;;;;;;10.35;6.03;;;;;;;;;;5030877;28;20022;-56
2022/02/02 21:45:22;;;;;;;10.15;5.75;;;;;;;;;;5038061;28;20547;-56
2022/02/02 21:47:48;;;;;;;10.88;6.18;;;;;;;;;;5042819;28;20047;-57
2022/02/02 21:50:17;;;;;;;8.77;5.60;;;;;;;;;;5045179;28;20036;-56
2022/02/02 21:52:45;;;;;;;8.77;5.75;;;;;;;;;;5033012;28;20030;-56
2022/02/02 21:55:12;;;;;;;10.75;5.68;;;;;;;;;;5023381;28;20029;-56
2022/02/02 21:57:38;;;;;;;7.05;4.82;;;;;;;;;;5024713;28;20524;-55
2022/02/02 22:00:06;;;;;;;6.00;4.00;;;;;;;;;;5030130;28;20401;-56
2022/02/02 22:02:34;;;;;;;6.90;4.20;;;;;;;;;;5038200;28;20654;-56
2022/02/02 22:05:00;;;;;;;4.82;3.40;;;;;;;;;;5025628;28;20540;-55
2022/02/02 22:07:27;;;;;;;5.35;3.70;;;;;;;;;;5025231;28;20113;-55
2022/02/02 22:09:56;;;;;;;5.53;3.67;;;;;;;;;;5034287;28;20423;-55
2022/02/02 22:12:24;;;;;;;6.47;4.10;;;;;;;;;;5044665;28;20056;-55
2022/02/02 22:14:51;;;;;;;5.53;3.42;;;;;;;;;;5045101;28;20040;-55
2022/02/02 22:17:20;;;;;;;4.80;3.38;;;;;;;;;;5044840;28;20029;-54
2022/02/02 22:19:50;;;;;;;6.32;3.90;;;;;;;;;;5043111;28;20400;-55
2022/02/02 22:22:17;;;;;;;5.18;3.75;;;;;;;;;;5033206;28;20025;-55
2022/02/02 22:24:43;;;;;;;5.53;3.33;;;;;;;;;;5024441;28;20040;-55
2022/02/02 22:27:09;;;;;;;4.82;3.40;;;;;;;;;;5029224;28;20055;-55
2022/02/02 22:29:35;;;;;;;5.35;4.00;;;;;;;;;;5044072;28;20139;-55
2022/02/02 22:32:02;;;;;;;5.22;3.72;;;;;;;;;;5043350;28;20381;-55
2022/02/02 22:34:28;;;;;;;6.57;4.38;;;;;;;;;;5043750;28;20033;-55
2022/02/02 22:36:56;;;;;;;6.43;4.40;;;;;;;;;;5042189;28;20128;-55
2022/02/02 22:39:22;;;;;;;7.03;4.18;;;;;;;;;;5030679;28;20123;-55
2022/02/02 22:41:49;;;;;;;5.95;4.30;;;;;;;;;;5025002;28;20052;-54
2022/02/02 22:44:16;;;;;;;5.95;4.10;;;;;;;;;;5024557;28;20029;-55
2022/02/02 22:46:43;;;;;;;6.90;4.00;;;;;;;;;;5024181;28;20044;-55
2022/02/02 22:49:10;;;;;;;4.43;3.40;;;;;;;;;;5023918;28;20052;-55
2022/02/02 22:51:37;;;;;;;5.75;3.85;;;;;;;;;;5023987;28;20052;-56
2022/02/02 22:54:04;;;;;;;5.85;3.60;;;;;;;;;;5024221;28;20039;-56
2022/02/02 22:56:30;;;;;;;4.78;3.30;;;;;;;;;;5024565;28;20029;-55
2022/02/02 22:58:58;;;;;;;4.65;3.35;;;;;;;;;;5023740;28;20120;-56
2022/02/02 23:01:26;;;;;;;4.07;3.03;;;;;;;;;;5022649;28;20025;-56
2022/02/02 23:03:54;;;;;;;4.72;3.40;;;;;;;;;;5024053;28;20036;-56
2022/02/02 23:06:21;;;;;;;4.72;3.85;;;;;;;;;;5023923;28;20036;-55
2022/02/02 23:08:47;;;;;;;4.65;3.13;;;;;;;;;;5029035;28;20033;-56
2022/02/02 23:11:14;;;;;;;3.38;2.83;;;;;;;;;;5027408;28;20088;-55
2022/02/02 23:13:43;;;;;;;3.38;2.60;;;;;;;;;;5023874;28;20034;-55
2022/02/02 23:16:17;;;;;;;3.67;2.50;;;;;;;;;;5024089;28;20464;-55
2022/02/02 23:18:44;;;;;;;5.70;3.20;;;;;;;;;;5023938;28;20033;-56
2022/02/02 23:21:12;;;;;;;5.05;3.05;;;;;;;;;;5032406;28;20133;-55
2022/02/02 23:23:41;;;;;;;3.88;2.75;;;;;;;;;;5043573;28;20018;-55
2022/02/02 23:26:07;;;;;;;3.83;2.70;;;;;;;;;;5045086;28;20404;-56
2022/02/02 23:28:37;;;;;;;3.50;2.60;;;;;;;;;;5043620;28;20037;-55
2022/02/02 23:31:06;;;;;;;3.08;2.08;;;;;;;;;;5042476;28;20029;-55
2022/02/02 23:33:32;;;;;;;4.18;2.45;;;;;;;;;;5042222;28;20029;-56
2022/02/02 23:35:59;;;;;;;3.50;2.20;;;;;;;;;;5041235;28;20029;-55
2022/02/02 23:38:25;;;;;;;3.00;2.20;;;;;;;;;;5043254;28;20063;-55
2022/02/02 23:43:18;;;;;;;3.83;2.00;;;;;;;;;;5043687;28;20068;-55
2022/02/02 23:45:48;;;;;;;3.22;1.95;;;;;;;;;;5035175;28;20026;-55
2022/02/02 23:48:14;;;;;;;2.13;1.80;;;;;;;;;;5023658;28;20109;-55
2022/02/02 23:50:40;;;;;;;2.63;1.77;;;;;;;;;;5023446;28;20559;-55
2022/02/02 23:53:07;;;;;;;1.85;1.50;;;;;;;;;;5033546;28;20029;-55
2022/02/02 23:55:39;;;;;;;2.00;1.58;;;;;;;;;;5025579;28;20076;-55
2022/02/02 23:58:14;;;;;;;1.98;1.48;;;;;;;;;;5043541;28;20500;-55
